Time;durP1;ratioP1;P1;durP2;ratioP2;P2;SDS_P1;SDS_P2;PMS_P1;PMS_P2;Temp;Humidity;BMP_temperature;BMP_pressure;BME280_temperature;BME280_humidity;BME280_pressure;Samples;Min_cycle;Max_cycle;Signal;HPM_P1;HPM_P2
2020/12/27 00:00:13;;;;;;;11.95;8.00;;;7.50;76.40;;;;;;4983092;28;20236;-93
2020/12/27 00:02:39;;;;;;;14.20;9.82;;;7.60;76.30;;;;;;4980094;28;20175;-93
2020/12/27 00:05:06;;;;;;;9.55;7.47;;;7.40;76.60;;;;;;4980038;28;20573;-94
2020/12/27 00:07:32;;;;;;;11.35;7.75;;;7.10;76.70;;;;;;4979011;28;20180;-95
2020/12/27 00:09:58;;;;;;;14.82;9.88;;;7.10;78.00;;;;;;4980365;28;20184;-94
2020/12/27 00:12:24;;;;;;;10.03;7.67;;;7.10;77.50;;;;;;4982810;28;20264;-94
2020/12/27 00:14:50;;;;;;;13.40;7.87;;;7.30;77.00;;;;;;4981100;28;20191;-94
2020/12/27 00:17:16;;;;;;;15.97;9.40;;;7.30;76.50;;;;;;4978254;28;20478;-94
2020/12/27 00:19:42;;;;;;;12.43;9.07;;;7.40;77.10;;;;;;4979851;28;20199;-93
2020/12/27 00:22:10;;;;;;;15.13;10.47;;;7.50;76.80;;;;;;4978248;28;20257;-93
2020/12/27 00:24:36;;;;;;;13.65;8.90;;;7.20;76.80;;;;;;4975678;28;20419;-93
2020/12/27 00:27:02;;;;;;;13.57;8.35;;;7.20;76.20;;;;;;4977121;28;20180;-93
2020/12/27 00:29:28;;;;;;;11.47;7.43;;;7.20;76.60;;;;;;4975914;28;20303;-93
2020/12/27 00:31:55;;;;;;;11.60;8.67;;;7.10;76.80;;;;;;4975470;28;20831;-93
2020/12/27 00:34:21;;;;;;;9.25;7.57;;;7.10;76.50;;;;;;4979017;28;20164;-94
2020/12/27 00:36:48;;;;;;;12.32;7.97;;;7.20;76.70;;;;;;4977946;28;20195;-94
2020/12/27 00:39:13;;;;;;;12.27;7.97;;;7.30;76.40;;;;;;4980110;28;20283;-93
2020/12/27 00:41:39;;;;;;;10.03;7.70;;;7.50;76.20;;;;;;4980837;28;20192;-94
2020/12/27 00:44:05;;;;;;;12.57;7.97;;;7.40;75.50;;;;;;4984479;28;20450;-93
2020/12/27 00:46:31;;;;;;;9.93;6.80;;;7.10;75.90;;;;;;4985612;28;20164;-94
2020/12/27 00:48:58;;;;;;;15.00;8.10;;;7.20;76.20;;;;;;4985337;28;20195;-91
2020/12/27 01:30:24;;;;;;;8.10;5.70;;;7.10;75.70;;;;;;5068421;23;20254;-93
2020/12/27 02:06:14;;;;;;;8.45;4.97;;;7.20;75.90;;;;;;5011761;28;20186;-93
2020/12/27 02:39:00;;;;;;;4.88;3.92;;;6.90;77.40;;;;;;5009117;28;20246;-93
2020/12/27 02:41:26;;;;;;;5.97;4.30;;;7.00;77.90;;;;;;4992071;28;20225;-93
2020/12/27 02:43:52;;;;;;;4.87;4.37;;;6.90;78.00;;;;;;4990996;28;20179;-93
2020/12/27 02:53:03;;;;;;;7.82;4.03;;;7.30;77.00;;;;;;5011009;28;20190;-93
2020/12/27 02:55:29;;;;;;;6.60;4.35;;;6.90;77.50;;;;;;4976294;28;20180;-93
2020/12/27 02:57:55;;;;;;;3.92;3.63;;;7.20;78.10;;;;;;4992345;28;20230;-93
2020/12/27 03:00:21;;;;;;;4.18;3.75;;;7.20;77.50;;;;;;4994222;28;20191;-93
2020/12/27 03:02:47;;;;;;;4.40;2.90;;;7.10;77.50;;;;;;4992034;28;20185;-93
2020/12/27 03:05:13;;;;;;;5.87;2.93;;;7.00;77.80;;;;;;4990845;28;20191;-92
2020/12/27 03:07:40;;;;;;;3.33;2.97;;;7.10;78.10;;;;;;4992090;28;20179;-94
2020/12/27 03:10:06;;;;;;;8.27;3.45;;;6.80;77.80;;;;;;4992455;28;20203;-93
2020/12/27 03:22:43;;;;;;;3.65;3.20;;;7.30;77.60;;;;;;5008687;28;20207;-94
2020/12/27 03:25:09;;;;;;;3.28;2.92;;;7.30;77.20;;;;;;4992759;28;20270;-93
2020/12/27 03:27:35;;;;;;;4.00;2.93;;;7.50;77.20;;;;;;4995394;28;20549;-93
2020/12/27 03:30:01;;;;;;;4.03;2.97;;;7.30;76.90;;;;;;4993434;28;20249;-93
2020/12/27 03:32:26;;;;;;;2.97;2.77;;;7.50;76.50;;;;;;4997670;28;20210;-93
2020/12/27 03:34:52;;;;;;;5.17;2.83;;;7.30;76.50;;;;;;4996676;28;20431;-93
2020/12/27 03:37:18;;;;;;;4.53;2.60;;;7.50;76.60;;;;;;4998839;28;20215;-93
2020/12/27 03:39:43;;;;;;;3.50;2.87;;;7.50;76.30;;;;;;4997263;28;20199;-93
2020/12/27 03:42:09;;;;;;;4.73;3.50;;;7.20;76.70;;;;;;4997632;28;20183;-93
2020/12/27 03:44:35;;;;;;;3.57;2.70;;;7.50;76.90;;;;;;4998056;28;20251;-93
2020/12/27 03:47:01;;;;;;;6.03;2.80;;;7.60;76.50;;;;;;4998185;28;20159;-93
2020/12/27 03:49:26;;;;;;;4.70;3.42;;;7.40;76.90;;;;;;4994862;28;20211;-93
2020/12/27 03:51:52;;;;;;;2.40;2.20;;;7.40;77.60;;;;;;4995334;28;20180;-93
2020/12/27 03:54:18;;;;;;;5.07;3.73;;;7.20;78.10;;;;;;4992900;28;20203;-94
2020/12/27 03:56:43;;;;;;;2.80;2.30;;;7.40;78.40;;;;;;4997665;28;20203;-94
2020/12/27 03:59:09;;;;;;;2.83;2.50;;;7.50;78.20;;;;;;4994622;28;20309;-94
2020/12/27 04:01:35;;;;;;;2.30;2.10;;;7.20;78.50;;;;;;4993482;28;20180;-94
2020/12/27 04:04:00;;;;;;;2.67;2.47;;;7.20;78.80;;;;;;4990684;28;20183;-94
2020/12/27 04:06:26;;;;;;;2.53;2.20;;;7.20;78.90;;;;;;4994708;28;20214;-94
2020/12/27 04:08:52;;;;;;;2.60;2.40;;;7.20;79.00;;;;;;4995031;28;20218;-95
2020/12/27 04:11:18;;;;;;;3.50;2.43;;;7.30;79.70;;;;;;4996699;28;20183;-94
2020/12/27 04:13:44;;;;;;;4.07;2.40;;;7.20;79.00;;;;;;4997912;28;20175;-94
2020/12/27 04:16:10;;;;;;;4.43;1.90;;;7.20;79.60;;;;;;4996895;28;20259;-94
2020/12/27 04:18:35;;;;;;;4.40;2.70;;;7.30;79.70;;;;;;4998863;28;20211;-93
2020/12/27 04:21:01;;;;;;;2.50;2.30;;;7.40;79.80;;;;;;4999733;28;20186;-93
2020/12/27 04:23:27;;;;;;;3.77;2.40;;;7.40;79.30;;;;;;4998949;28;20180;-93
2020/12/27 04:25:52;;;;;;;2.90;2.43;;;7.30;79.20;;;;;;4999469;28;20218;-93
2020/12/27 04:28:18;;;;;;;5.43;2.53;;;7.30;79.80;;;;;;4997223;28;20167;-93
2020/12/27 04:30:44;;;;;;;3.53;2.53;;;7.30;80.10;;;;;;4997035;28;20245;-93
2020/12/27 04:33:11;;;;;;;3.05;1.73;;;7.10;80.40;;;;;;4996783;28;20179;-93
2020/12/27 04:35:37;;;;;;;4.13;2.53;;;7.20;80.70;;;;;;4997803;28;20271;-93
2020/12/27 04:38:02;;;;;;;2.13;1.93;;;7.20;80.70;;;;;;4998874;28;20210;-93
2020/12/27 04:40:28;;;;;;;5.20;2.53;;;7.10;81.10;;;;;;4998023;28;20219;-93
2020/12/27 04:46:23;;;;;;;2.35;2.15;;;6.90;81.40;;;;;;5013559;28;20190;-93
2020/12/27 04:48:51;;;;;;;6.32;2.78;;;7.10;81.80;;;;;;4980854;28;20175;-93
2020/12/27 04:51:18;;;;;;;1.65;1.55;;;6.90;82.40;;;;;;4996062;28;20183;-93
2020/12/27 04:53:44;;;;;;;2.25;1.90;;;7.00;83.10;;;;;;4995901;28;20251;-93
2020/12/27 04:56:10;;;;;;;2.20;2.00;;;7.10;82.70;;;;;;4995388;28;20191;-93
2020/12/27 06:58:40;;;;;;;0.75;0.70;;;7.00;82.10;;;;;;5008003;28;20282;-92
2020/12/27 07:04:36;;;;;;;1.00;0.70;;;7.00;82.20;;;;;;5007769;28;20182;-93
2020/12/27 07:07:01;;;;;;;0.70;0.70;;;7.30;82.00;;;;;;4991256;28;20190;-93
2020/12/27 07:19:18;;;;;;;0.88;0.88;;;7.10;81.70;;;;;;5015889;23;20190;-94
2020/12/27 07:21:48;;;;;;;1.73;0.85;;;7.30;81.90;;;;;;4976806;28;20211;-94
2020/12/27 07:24:36;;;;;;;1.00;0.90;;;7.20;81.20;;;;;;4993669;28;20179;-94
2020/12/27 07:30:16;;;;;;;0.98;0.88;;;7.10;81.30;;;;;;5008330;28;20263;-93
2020/12/27 07:32:48;;;;;;;0.88;0.88;;;7.40;81.40;;;;;;4991277;28;20241;-93
2020/12/27 07:35:14;;;;;;;1.25;0.80;;;7.40;80.80;;;;;;4991508;28;20243;-93
2020/12/27 07:37:43;;;;;;;0.75;0.75;;;7.30;80.90;;;;;;4993826;28;20238;-93
2020/12/27 07:40:12;;;;;;;5.05;0.95;;;7.40;81.10;;;;;;4979504;28;20313;-93
2020/12/27 07:42:37;;;;;;;0.70;0.63;;;7.20;81.30;;;;;;4998700;28;20179;-93
2020/12/27 07:45:21;;;;;;;0.77;0.77;;;7.30;81.50;;;;;;4999223;28;20275;-92
2020/12/27 07:47:47;;;;;;;0.85;0.80;;;7.40;81.70;;;;;;4998193;28;20423;-92
2020/12/27 07:50:15;;;;;;;0.77;0.77;;;7.40;81.50;;;;;;4998736;28;20254;-93
2020/12/27 07:52:41;;;;;;;0.80;0.77;;;7.50;81.40;;;;;;5000174;28;20190;-94
2020/12/27 07:55:07;;;;;;;0.77;0.75;;;7.60;81.10;;;;;;5000364;28;20179;-93
2020/12/27 07:57:32;;;;;;;1.43;0.83;;;7.70;81.10;;;;;;5001345;28;20287;-92
2020/12/27 08:00:14;;;;;;;2.80;0.80;;;7.60;80.80;;;;;;5001537;28;20222;-93
2020/12/27 08:02:44;;;;;;;0.73;0.73;;;7.50;81.20;;;;;;5001708;28;20172;-92
2020/12/27 08:05:14;;;;;;;1.20;1.10;;;7.40;81.50;;;;;;5002819;28;20178;-93
2020/12/27 08:07:40;;;;;;;2.35;0.80;;;7.40;81.80;;;;;;5004015;28;20175;-92
2020/12/27 08:10:25;;;;;;;1.90;0.70;;;7.40;81.80;;;;;;5002596;28;20187;-93
2020/12/27 08:12:57;;;;;;;2.65;1.05;;;7.40;81.60;;;;;;5019711;28;20414;-93
2020/12/27 08:15:26;;;;;;;0.80;0.80;;;7.50;81.80;;;;;;5003233;28;20179;-93
2020/12/27 08:18:09;;;;;;;1.10;1.00;;;7.40;81.70;;;;;;5002478;28;20203;-93
2020/12/27 08:20:54;;;;;;;1.50;0.90;;;7.50;82.00;;;;;;5019641;28;20230;-93
2020/12/27 08:23:20;;;;;;;0.77;0.77;;;7.40;82.00;;;;;;5002635;28;20176;-92
2020/12/27 08:25:57;;;;;;;1.10;0.90;;;7.30;82.30;;;;;;5001674;28;20168;-92
2020/12/27 08:28:22;;;;;;;0.73;0.73;;;7.30;82.40;;;;;;5001869;28;20199;-93
2020/12/27 08:30:48;;;;;;;1.80;1.20;;;7.30;82.50;;;;;;5001816;28;20203;-92
2020/12/27 08:33:19;;;;;;;1.30;0.90;;;7.40;82.70;;;;;;5000890;28;20183;-94
2020/12/27 08:35:47;;;;;;;3.00;1.00;;;7.50;82.60;;;;;;5003715;28;20187;-91
2020/12/27 08:38:26;;;;;;;0.85;0.80;;;7.60;81.90;;;;;;5004467;28;20266;-93
2020/12/27 08:41:26;;;;;;;1.10;0.93;;;7.50;81.80;;;;;;5004198;28;20198;-92
2020/12/27 08:43:56;;;;;;;2.08;1.02;;;7.50;82.10;;;;;;4997549;28;20187;-92
2020/12/27 08:46:28;;;;;;;1.02;0.85;;;7.60;81.90;;;;;;5004746;28;20178;-95
2020/12/27 08:49:08;;;;;;;1.10;1.00;;;7.60;82.00;;;;;;5004858;28;20188;-95
2020/12/27 08:51:38;;;;;;;2.08;1.05;;;7.60;81.80;;;;;;5004677;28;20199;-94
2020/12/27 08:54:07;;;;;;;3.47;1.10;;;7.70;82.20;;;;;;5004673;28;20219;-94
2020/12/27 08:56:34;;;;;;;2.75;1.00;;;7.80;82.30;;;;;;5004650;28;20167;-93
2020/12/27 08:59:00;;;;;;;0.80;0.80;;;7.90;81.20;;;;;;5004468;28;20211;-93
2020/12/27 09:01:26;;;;;;;5.80;0.80;;;7.70;81.00;;;;;;5003724;28;20194;-94
2020/12/27 09:03:52;;;;;;;0.70;0.70;;;7.60;81.20;;;;;;5002118;28;20235;-94
2020/12/27 09:06:18;;;;;;;0.85;0.82;;;7.60;81.30;;;;;;5001713;28;20425;-94
2020/12/27 09:08:44;;;;;;;0.70;0.70;;;7.50;81.40;;;;;;5000564;28;20195;-94
2020/12/27 09:11:10;;;;;;;1.23;0.87;;;7.60;81.50;;;;;;5001035;28;20191;-94
2020/12/27 09:13:37;;;;;;;1.10;0.93;;;7.60;81.60;;;;;;5001769;28;20430;-93
2020/12/27 09:16:03;;;;;;;2.15;0.80;;;7.70;81.40;;;;;;5001673;28;20430;-94
2020/12/27 09:18:31;;;;;;;1.10;0.80;;;7.70;81.40;;;;;;5002346;28;20195;-94
2020/12/27 09:20:59;;;;;;;1.42;0.90;;;7.80;81.00;;;;;;5001869;28;20199;-93
2020/12/27 09:23:25;;;;;;;1.33;1.10;;;7.60;80.80;;;;;;5001534;28;20579;-93
2020/12/27 09:26:13;;;;;;;0.95;0.80;;;7.70;81.30;;;;;;5002175;28;20195;-94
2020/12/27 09:28:40;;;;;;;2.72;0.85;;;7.70;81.10;;;;;;5001173;28;20175;-94
2020/12/27 09:31:09;;;;;;;1.35;0.93;;;7.70;81.00;;;;;;4999895;28;20180;-94
2020/12/27 09:33:45;;;;;;;3.65;0.80;;;7.60;81.10;;;;;;5017069;28;20172;-95
2020/12/27 09:36:11;;;;;;;1.10;0.80;;;7.70;81.00;;;;;;5018992;28;20155;-94
2020/12/27 09:38:39;;;;;;;2.25;0.70;;;7.90;81.20;;;;;;5001344;28;20266;-94
2020/12/27 09:41:06;;;;;;;1.20;0.80;;;7.80;80.90;;;;;;5000782;28;20163;-93
2020/12/27 09:43:44;;;;;;;13.32;1.73;;;7.70;81.00;;;;;;4992646;28;20246;-93
2020/12/27 09:46:10;;;;;;;1.60;1.00;;;7.80;80.70;;;;;;4997543;28;20277;-93
2020/12/27 09:48:36;;;;;;;1.00;0.90;;;7.80;80.80;;;;;;4998595;28;20183;-93
2020/12/27 09:51:14;;;;;;;2.60;1.47;;;8.00;80.20;;;;;;4998205;28;20187;-93
2020/12/27 09:53:40;;;;;;;0.80;0.80;;;8.00;80.10;;;;;;4996745;28;20187;-94
2020/12/27 09:56:06;;;;;;;0.80;0.70;;;7.80;80.30;;;;;;4999871;28;20179;-93
2020/12/27 09:58:31;;;;;;;1.93;0.70;;;7.70;80.70;;;;;;5000834;28;20207;-94
2020/12/27 10:00:57;;;;;;;1.00;0.70;;;7.80;80.70;;;;;;4997478;28;20195;-91
2020/12/27 10:03:23;;;;;;;0.83;0.80;;;7.90;80.50;;;;;;4996231;28;20199;-94
2020/12/27 10:05:48;;;;;;;1.27;0.83;;;7.90;80.30;;;;;;4999839;28;20222;-94
2020/12/27 10:08:14;;;;;;;2.03;0.90;;;8.00;80.00;;;;;;5002136;28;20175;-94
2020/12/27 10:10:40;;;;;;;1.37;0.90;;;7.90;80.20;;;;;;5001783;28;20230;-94
2020/12/27 10:13:05;;;;;;;0.77;0.77;;;7.70;80.60;;;;;;4999942;28;20191;-94
2020/12/27 10:15:31;;;;;;;0.90;0.80;;;7.90;80.70;;;;;;4999002;28;20426;-94
2020/12/27 10:17:57;;;;;;;1.00;0.80;;;8.00;80.50;;;;;;5001246;28;20203;-93
2020/12/27 10:20:22;;;;;;;0.77;0.77;;;8.10;79.90;;;;;;5001299;28;20489;-95
2020/12/27 10:22:48;;;;;;;1.00;0.80;;;8.00;79.90;;;;;;5002474;28;20180;-94
2020/12/27 10:25:14;;;;;;;1.07;0.60;;;8.10;79.60;;;;;;5002488;28;20166;-94
2020/12/27 10:27:39;;;;;;;0.80;0.80;;;8.20;79.70;;;;;;5002625;28;20340;-93
2020/12/27 10:30:05;;;;;;;0.70;0.70;;;8.10;80.30;;;;;;5002686;28;20202;-95
2020/12/27 10:32:31;;;;;;;1.20;0.90;;;8.00;79.40;;;;;;5002654;28;20184;-94
2020/12/27 10:34:57;;;;;;;0.80;0.80;;;8.10;79.70;;;;;;5002457;28;20192;-94
2020/12/27 10:37:22;;;;;;;0.90;0.70;;;8.10;79.40;;;;;;5002474;28;20189;-95
2020/12/27 10:39:49;;;;;;;2.13;0.93;;;8.00;79.50;;;;;;5002802;28;20183;-95
2020/12/27 10:42:15;;;;;;;0.98;0.90;;;8.20;79.70;;;;;;5002634;28;20179;-96
2020/12/27 10:44:48;;;;;;;0.73;0.70;;;8.40;79.10;;;;;;5001579;28;20186;-93
2020/12/27 10:47:27;;;;;;;1.55;1.10;;;8.40;78.60;;;;;;5001954;28;20175;-95
2020/12/27 10:50:00;;;;;;;2.00;0.90;;;8.20;78.60;;;;;;5017712;28;20210;-94
2020/12/27 10:52:28;;;;;;;0.70;0.70;;;8.40;79.20;;;;;;5001246;28;20175;-95
2020/12/27 10:54:54;;;;;;;1.20;1.10;;;8.30;78.70;;;;;;4998717;28;20183;-94
2020/12/27 10:57:20;;;;;;;0.80;0.73;;;8.40;79.30;;;;;;5000525;28;20201;-96
2020/12/27 10:59:48;;;;;;;1.00;0.90;;;8.10;79.10;;;;;;5002143;28;20202;-96
2020/12/27 11:02:13;;;;;;;0.80;0.70;;;8.30;79.50;;;;;;5002470;28;20434;-96
2020/12/27 11:04:41;;;;;;;0.80;0.80;;;8.30;79.20;;;;;;5002668;28;20167;-96
2020/12/27 11:07:06;;;;;;;0.70;0.65;;;8.40;79.40;;;;;;5002414;28;20415;-96
2020/12/27 11:09:32;;;;;;;1.23;0.80;;;8.40;78.90;;;;;;5002156;28;20217;-96
2020/12/27 11:11:58;;;;;;;1.77;1.67;;;8.20;79.80;;;;;;5002260;28;20163;-96
2020/12/27 11:14:23;;;;;;;0.70;0.70;;;8.20;79.40;;;;;;5002354;28;20426;-96
2020/12/27 11:16:49;;;;;;;0.67;0.63;;;8.10;79.80;;;;;;5005980;28;20167;-95
2020/12/27 11:19:15;;;;;;;2.47;0.70;;;8.00;79.90;;;;;;5006230;28;20203;-95
2020/12/27 11:21:48;;;;;;;1.43;0.73;;;8.10;79.70;;;;;;5006375;28;20449;-95
2020/12/27 11:24:15;;;;;;;0.70;0.65;;;8.00;79.50;;;;;;5006358;28;20422;-94
2020/12/27 11:26:41;;;;;;;1.90;0.88;;;8.00;79.30;;;;;;5006407;28;20167;-96
2020/12/27 11:29:07;;;;;;;1.00;0.70;;;7.90;79.80;;;;;;5006129;28;20183;-96
2020/12/27 11:31:33;;;;;;;0.73;0.73;;;7.80;80.20;;;;;;5006321;28;20210;-96
2020/12/27 11:33:58;;;;;;;0.70;0.60;;;7.80;80.00;;;;;;5006058;28;20171;-96
2020/12/27 11:36:24;;;;;;;4.83;1.20;;;7.80;79.90;;;;;;5005964;28;20414;-95
2020/12/27 11:38:50;;;;;;;2.63;0.90;;;7.70;80.40;;;;;;5005831;28;20203;-96
2020/12/27 11:41:16;;;;;;;0.77;0.70;;;7.70;80.30;;;;;;5005560;28;20438;-96
2020/12/27 11:43:43;;;;;;;0.70;0.70;;;7.80;80.40;;;;;;5006051;28;20474;-96
2020/12/27 11:46:11;;;;;;;0.70;0.65;;;8.00;80.20;;;;;;5006139;28;20402;-94
2020/12/27 11:48:41;;;;;;;1.10;1.00;;;7.90;79.80;;;;;;5005678;28;20182;-96
2020/12/27 11:51:07;;;;;;;0.93;0.70;;;8.10;79.80;;;;;;5006023;28;20160;-96
2020/12/27 11:54:07;;;;;;;0.70;0.60;;;8.00;79.90;;;;;;5005905;28;20222;-96
2020/12/27 11:56:40;;;;;;;1.00;0.90;;;7.90;79.40;;;;;;5005458;28;20438;-93
2020/12/27 11:59:09;;;;;;;2.67;0.70;;;8.00;79.40;;;;;;5003560;28;20233;-95
2020/12/27 12:01:43;;;;;;;2.80;0.73;;;7.90;80.10;;;;;;5004809;28;20205;-95
2020/12/27 12:04:09;;;;;;;0.70;0.63;;;7.90;80.10;;;;;;5005351;28;20179;-93
2020/12/27 12:06:35;;;;;;;1.00;0.80;;;8.00;80.20;;;;;;5005211;28;20163;-94
2020/12/27 12:09:04;;;;;;;1.00;0.77;;;7.90;80.20;;;;;;5004433;28;20474;-93
2020/12/27 12:11:37;;;;;;;0.70;0.70;;;8.10;80.50;;;;;;5003699;28;20430;-93
2020/12/27 12:14:03;;;;;;;2.05;0.80;;;8.00;80.30;;;;;;5004149;28;20171;-96
2020/12/27 12:16:29;;;;;;;1.20;1.00;;;7.90;80.60;;;;;;5022250;28;20179;-96
2020/12/27 12:19:03;;;;;;;1.83;0.80;;;8.00;80.80;;;;;;5005225;28;20222;-96
2020/12/27 12:21:32;;;;;;;0.80;0.70;;;8.10;80.70;;;;;;5005381;28;20176;-96
2020/12/27 12:24:01;;;;;;;0.82;0.75;;;8.10;80.70;;;;;;5005092;28;20167;-95
2020/12/27 12:26:28;;;;;;;2.15;0.70;;;8.30;80.70;;;;;;5004762;28;20202;-95
2020/12/27 12:28:56;;;;;;;2.40;0.90;;;8.20;80.40;;;;;;5005163;28;20179;-95
2020/12/27 12:31:24;;;;;;;0.80;0.80;;;8.10;80.80;;;;;;5005098;28;20183;-95
2020/12/27 12:33:51;;;;;;;1.80;0.80;;;8.00;81.10;;;;;;5005246;28;20180;-96
2020/12/27 12:36:24;;;;;;;1.55;0.75;;;8.00;81.40;;;;;;5005163;28;20176;-95
2020/12/27 12:38:51;;;;;;;0.80;0.80;;;8.00;81.60;;;;;;5004741;28;20200;-96
2020/12/27 12:41:23;;;;;;;0.70;0.70;;;8.20;81.60;;;;;;5004987;28;20166;-96
2020/12/27 12:43:52;;;;;;;2.65;0.80;;;8.20;81.20;;;;;;5004965;28;20247;-96
2020/12/27 12:46:24;;;;;;;1.35;0.73;;;8.10;81.80;;;;;;5005063;28;20163;-96
2020/12/27 12:48:51;;;;;;;1.30;1.20;;;8.10;81.90;;;;;;5004845;28;20171;-96
2020/12/27 12:51:21;;;;;;;0.80;0.70;;;8.20;81.70;;;;;;5004869;28;20171;-96
2020/12/27 12:53:47;;;;;;;3.45;0.90;;;8.20;81.40;;;;;;5004902;28;20175;-95
2020/12/27 12:56:13;;;;;;;0.80;0.70;;;8.20;81.90;;;;;;5004882;28;20223;-95
2020/12/27 12:58:42;;;;;;;0.90;0.90;;;8.20;82.30;;;;;;5004464;28;20454;-96
2020/12/27 13:01:11;;;;;;;1.80;0.80;;;8.50;82.20;;;;;;5004687;28;20414;-96
2020/12/27 13:03:40;;;;;;;1.30;0.90;;;8.50;81.70;;;;;;5004684;28;20202;-96
2020/12/27 13:06:08;;;;;;;5.60;0.98;;;8.50;81.90;;;;;;5004593;28;20155;-96
2020/12/27 13:08:34;;;;;;;0.90;0.80;;;8.40;81.70;;;;;;5004513;28;20171;-96
2020/12/27 13:11:00;;;;;;;1.00;0.90;;;8.40;82.10;;;;;;5004061;28;20189;-96
2020/12/27 13:13:37;;;;;;;2.10;0.90;;;8.50;82.40;;;;;;5004424;28;20247;-96
2020/12/27 13:16:06;;;;;;;2.30;1.05;;;8.30;82.00;;;;;;5004505;28;20184;-96
2020/12/27 13:18:35;;;;;;;1.23;1.13;;;8.70;82.40;;;;;;5004205;28;20218;-96
2020/12/27 13:21:29;;;;;;;1.02;0.93;;;8.60;82.30;;;;;;5003996;28;20175;-96
2020/12/27 13:24:23;;;;;;;1.20;1.10;;;8.60;81.80;;;;;;5067989;23;20223;-96
2020/12/27 13:27:08;;;;;;;;;;;;;;;;;;;;;
2020/12/27 13:29:53;;;;;;;;;;;;;;;;;;;;;
2020/12/27 13:32:31;;;;;;;1.00;0.90;;;8.40;82.20;;;;;;5006642;28;20179;-95
2020/12/27 13:35:20;;;;;;;6.72;1.10;;;8.20;82.70;;;;;;5003542;28;20171;-95
2020/12/27 13:38:19;;;;;;;;;;;;;;;;;;;;;
2020/12/27 13:40:53;;;;;;;1.02;0.90;;;7.90;84.10;;;;;;5020098;28;20187;-94
2020/12/27 13:43:29;;;;;;;0.95;0.95;;;8.30;84.30;;;;;;5002595;28;20251;-95
2020/12/27 13:46:23;;;;;;;1.25;1.15;;;8.20;83.60;;;;;;5004073;28;20202;-95
2020/12/27 13:49:19;;;;;;;4.50;1.10;;;8.60;83.10;;;;;;5002730;28;20189;-95
2020/12/27 13:51:48;;;;;;;1.38;0.95;;;8.70;82.70;;;;;;5002999;28;20175;-95
2020/12/27 13:54:14;;;;;;;1.25;1.15;;;8.40;82.20;;;;;;4996545;28;20250;-93
2020/12/27 13:56:39;;;;;;;1.50;1.40;;;8.40;82.30;;;;;;4991818;28;20242;-94
2020/12/27 13:59:05;;;;;;;3.33;1.23;;;8.20;82.70;;;;;;4994614;28;20594;-94
2020/12/27 14:01:36;;;;;;;1.60;0.80;;;8.30;83.10;;;;;;4996531;28;20203;-93
2020/12/27 14:04:03;;;;;;;2.95;1.13;;;8.20;82.70;;;;;;5001759;28;20174;-93
2020/12/27 14:06:29;;;;;;;1.55;1.13;;;8.10;82.80;;;;;;5001183;28;20187;-94
2020/12/27 14:08:58;;;;;;;1.93;1.20;;;8.10;83.20;;;;;;5007932;23;20202;-95
2020/12/27 14:11:26;;;;;;;1.25;0.90;;;8.20;82.90;;;;;;5001694;28;20184;-94
2020/12/27 14:13:52;;;;;;;2.85;0.90;;;8.00;82.70;;;;;;5002967;28;20685;-94
2020/12/27 14:16:37;;;;;;;2.78;1.00;;;8.10;83.00;;;;;;5002713;28;20171;-96
2020/12/27 14:21:42;;;;;;;1.13;0.90;;;7.80;83.10;;;;;;5401388;23;20247;-95
2020/12/27 14:24:08;;;;;;;0.97;0.80;;;7.90;83.40;;;;;;5002458;28;20186;-93
2020/12/27 14:26:36;;;;;;;2.25;1.08;;;8.00;83.10;;;;;;4999459;28;20446;-94
2020/12/27 14:29:03;;;;;;;2.20;1.00;;;8.00;82.60;;;;;;4999835;28;20207;-92
2020/12/27 14:31:29;;;;;;;1.55;1.10;;;8.00;82.50;;;;;;5000430;28;20187;-94
2020/12/27 14:33:55;;;;;;;1.60;1.10;;;7.80;82.40;;;;;;4998217;28;20190;-93
2020/12/27 14:36:21;;;;;;;2.07;1.20;;;7.90;82.60;;;;;;4995817;28;20426;-93
2020/12/27 14:38:48;;;;;;;1.48;1.00;;;7.80;82.20;;;;;;4996387;28;20486;-91
2020/12/27 14:41:15;;;;;;;1.23;1.00;;;7.80;82.30;;;;;;4991666;28;20191;-90
2020/12/27 14:43:41;;;;;;;3.38;1.23;;;7.60;82.70;;;;;;4999195;28;20199;-93
2020/12/27 14:46:07;;;;;;;2.95;1.30;;;7.80;83.10;;;;;;4999976;28;20163;-93
2020/12/27 14:48:33;;;;;;;1.53;1.40;;;7.90;83.10;;;;;;4995809;28;20183;-93
2020/12/27 14:50:58;;;;;;;1.30;1.13;;;7.70;83.30;;;;;;4996314;28;20189;-92
2020/12/27 14:53:25;;;;;;;1.60;1.50;;;7.60;83.80;;;;;;4997745;28;20191;-93
2020/12/27 14:55:51;;;;;;;1.30;1.20;;;7.50;84.10;;;;;;4997749;28;20219;-94
2020/12/27 14:58:20;;;;;;;2.15;1.40;;;7.50;84.90;;;;;;4981572;28;20211;-94
2020/12/27 15:00:46;;;;;;;1.83;1.30;;;7.60;84.80;;;;;;4996321;28;20234;-92
2020/12/27 15:03:18;;;;;;;1.43;1.33;;;7.70;84.50;;;;;;4996858;28;20183;-93
2020/12/27 15:05:44;;;;;;;1.40;1.30;;;7.70;84.50;;;;;;5002034;28;20175;-94
2020/12/27 15:08:13;;;;;;;2.37;1.60;;;7.60;84.30;;;;;;5000513;28;20203;-93
2020/12/27 15:10:39;;;;;;;1.42;1.33;;;7.70;84.30;;;;;;5001289;28;20447;-94
2020/12/27 15:13:09;;;;;;;2.67;1.50;;;7.30;85.30;;;;;;5001716;28;20202;-95
2020/12/27 15:15:36;;;;;;;2.13;1.30;;;7.70;85.80;;;;;;5017495;28;20222;-94
2020/12/27 15:18:28;;;;;;;1.60;1.50;;;7.50;85.80;;;;;;5000695;28;20214;-95
2020/12/27 15:20:56;;;;;;;1.88;1.55;;;7.40;86.20;;;;;;5119512;23;20494;-94
2020/12/27 15:23:31;;;;;;;1.60;1.50;;;7.30;86.50;;;;;;4996966;28;20188;-93
2020/12/27 15:25:57;;;;;;;2.67;1.40;;;7.40;86.50;;;;;;4998112;28;20250;-95
2020/12/27 15:28:31;;;;;;;1.90;1.80;;;7.40;86.50;;;;;;5015907;28;20202;-95
2020/12/27 15:30:59;;;;;;;1.50;1.40;;;7.60;86.00;;;;;;4999196;28;20195;-94
2020/12/27 15:33:25;;;;;;;3.00;1.48;;;7.40;85.50;;;;;;5000834;28;20477;-95
2020/12/27 15:35:54;;;;;;;1.20;1.10;;;7.20;85.40;;;;;;5000290;28;20235;-95
2020/12/27 15:38:23;;;;;;;0.80;0.80;;;7.10;85.40;;;;;;4998216;28;20218;-95
2020/12/27 15:40:51;;;;;;;1.23;1.10;;;7.10;85.60;;;;;;4999278;28;20187;-95
2020/12/27 15:43:17;;;;;;;1.20;1.00;;;7.10;85.00;;;;;;5001968;28;20171;-95
2020/12/27 15:45:42;;;;;;;1.20;1.10;;;7.10;84.90;;;;;;5001969;28;20191;-95
2020/12/27 15:48:08;;;;;;;1.63;1.37;;;7.10;84.30;;;;;;5002323;28;20422;-95
2020/12/27 15:50:34;;;;;;;1.60;1.30;;;7.10;84.30;;;;;;5002029;28;20210;-94
2020/12/27 15:53:00;;;;;;;1.30;0.90;;;7.10;84.00;;;;;;5002225;28;20426;-95
2020/12/27 15:55:25;;;;;;;1.00;0.90;;;7.00;83.50;;;;;;5002069;28;20446;-95
2020/12/27 15:57:51;;;;;;;1.90;1.00;;;7.00;83.40;;;;;;4998286;28;20474;-94
2020/12/27 16:00:17;;;;;;;1.40;1.30;;;6.80;83.50;;;;;;4995634;28;20187;-93
2020/12/27 16:02:43;;;;;;;2.03;1.33;;;6.90;83.70;;;;;;4999047;28;20418;-93
2020/12/27 16:05:09;;;;;;;1.10;1.00;;;7.00;83.70;;;;;;5000747;28;20183;-93
2020/12/27 16:07:36;;;;;;;1.15;1.05;;;6.90;83.60;;;;;;4996437;28;20179;-93
2020/12/27 16:10:01;;;;;;;2.53;1.38;;;7.00;83.50;;;;;;4996514;28;20199;-94
2020/12/27 16:12:27;;;;;;;2.30;1.50;;;6.90;83.60;;;;;;4997850;28;20181;-94
2020/12/27 16:14:53;;;;;;;3.03;1.17;;;7.00;83.70;;;;;;4999336;28;20171;-94
2020/12/27 16:17:19;;;;;;;2.23;1.40;;;6.90;83.40;;;;;;4998168;28;20168;-94
2020/12/27 16:42:40;;;;;;;3.03;1.33;;;7.40;83.40;;;;;;5013393;28;20209;-94
2020/12/27 16:45:06;;;;;;;2.53;1.37;;;7.20;82.80;;;;;;4993989;28;20183;-94
2020/12/27 16:47:31;;;;;;;1.80;1.57;;;7.00;82.90;;;;;;4995095;28;20179;-94
2020/12/27 16:49:57;;;;;;;3.77;1.73;;;7.00;83.60;;;;;;4994673;28;20430;-95
2020/12/27 16:52:24;;;;;;;1.60;1.50;;;7.10;83.60;;;;;;4998225;28;20425;-94
2020/12/27 16:54:50;;;;;;;5.60;2.42;;;7.20;82.70;;;;;;4995453;28;20845;-94
2020/12/27 16:57:16;;;;;;;1.60;1.33;;;7.40;82.70;;;;;;5000742;28;20170;-94
2020/12/27 16:59:42;;;;;;;1.37;1.27;;;7.20;82.40;;;;;;5001962;28;20478;-94
2020/12/27 17:02:11;;;;;;;1.40;1.30;;;7.30;82.50;;;;;;5002922;28;20170;-96
2020/12/27 17:04:36;;;;;;;3.90;1.63;;;7.30;82.40;;;;;;5003459;28;20466;-96
2020/12/27 17:07:02;;;;;;;2.93;1.70;;;7.30;82.10;;;;;;5002810;28;20654;-95
2020/12/27 17:09:28;;;;;;;2.58;1.60;;;7.40;81.80;;;;;;5003387;28;20179;-95
2020/12/27 17:12:01;;;;;;;1.53;1.40;;;7.40;81.70;;;;;;5003879;28;20195;-96
2020/12/27 17:14:27;;;;;;;2.40;1.60;;;7.40;81.60;;;;;;5004062;28;20657;-96
2020/12/27 17:16:53;;;;;;;3.75;1.92;;;7.40;81.50;;;;;;5003672;28;20231;-95
2020/12/27 17:19:19;;;;;;;2.37;1.80;;;7.30;81.40;;;;;;5003560;28;20219;-96
2020/12/27 17:21:45;;;;;;;3.60;2.30;;;7.40;81.60;;;;;;5003296;28;20530;-93
2020/12/27 17:24:11;;;;;;;2.13;1.60;;;7.40;81.50;;;;;;5001002;28;20179;-94
2020/12/27 17:26:39;;;;;;;2.10;2.00;;;7.40;81.40;;;;;;5001878;28;20414;-95
2020/12/27 17:29:06;;;;;;;2.28;1.92;;;7.50;81.60;;;;;;5003860;28;20509;-96
2020/12/27 17:31:35;;;;;;;4.00;1.70;;;7.70;81.50;;;;;;5020792;28;20159;-96
2020/12/27 17:34:01;;;;;;;1.90;1.50;;;7.70;81.10;;;;;;5003727;28;20175;-94
2020/12/27 17:36:29;;;;;;;2.50;2.00;;;7.80;80.80;;;;;;5004116;28;20489;-96
2020/12/27 17:38:55;;;;;;;2.45;2.10;;;8.10;80.80;;;;;;5003827;28;20226;-96
2020/12/27 17:41:32;;;;;;;2.55;2.25;;;8.20;80.40;;;;;;5003935;28;20164;-95
2020/12/27 17:44:02;;;;;;;6.57;3.25;;;7.90;79.50;;;;;;5003191;28;20171;-95
2020/12/27 17:46:31;;;;;;;4.15;2.72;;;7.90;79.90;;;;;;5003652;28;20179;-94
2020/12/27 17:48:57;;;;;;;6.10;2.63;;;7.60;80.00;;;;;;5003106;28;20250;-95
2020/12/27 17:51:23;;;;;;;6.23;3.33;;;7.60;80.70;;;;;;5003223;28;20203;-95